sensor_id;sensor_type;location;lat;lon;timestamp;P1;durP1;ratioP1;P2;durP2;ratioP2
60370;SDS011;48550;40.588;49.684;2024-01-15T00:02:09;6.10;;;2.80;;
60370;SDS011;48550;40.588;49.684;2024-01-15T00:04:38;5.53;;;3.25;;
60370;SDS011;48550;40.588;49.684;2024-01-15T00:07:08;4.05;;;2.67;;
60370;SDS011;48550;40.588;49.684;2024-01-15T00:09:34;4.93;;;2.88;;
60370;SDS011;48550;40.588;49.684;2024-01-15T00:12:00;7.18;;;2.92;;
60370;SDS011;48550;40.588;49.684;2024-01-15T00:14:27;6.95;;;3.17;;
60370;SDS011;48550;40.588;49.684;2024-01-15T00:16:53;5.53;;;2.58;;
60370;SDS011;48550;40.588;49.684;2024-01-15T00:19:22;5.50;;;2.95;;
60370;SDS011;48550;40.588;49.684;2024-01-15T00:21:49;5.53;;;2.78;;
60370;SDS011;48550;40.588;49.684;2024-01-15T00:24:15;7.10;;;3.38;;
60370;SDS011;48550;40.588;49.684;2024-01-15T00:26:41;9.15;;;3.45;;
60370;SDS011;48550;40.588;49.684;2024-01-15T00:29:07;5.22;;;3.05;;
60370;SDS011;48550;40.588;49.684;2024-01-15T00:31:33;4.13;;;2.67;;
60370;SDS011;48550;40.588;49.684;2024-01-15T00:33:59;5.13;;;2.85;;
60370;SDS011;48550;40.588;49.684;2024-01-15T00:36:25;7.75;;;3.60;;
60370;SDS011;48550;40.588;49.684;2024-01-15T00:38:51;5.45;;;3.25;;
60370;SDS011;48550;40.588;49.684;2024-01-15T00:41:17;6.40;;;3.28;;
60370;SDS011;48550;40.588;49.684;2024-01-15T00:43:44;9.00;;;3.63;;
60370;SDS011;48550;40.588;49.684;2024-01-15T00:46:10;5.85;;;3.15;;
60370;SDS011;48550;40.588;49.684;2024-01-15T00:48:36;5.85;;;3.40;;
60370;SDS011;48550;40.588;49.684;2024-01-15T00:51:02;7.60;;;3.10;;
60370;SDS011;48550;40.588;49.684;2024-01-15T00:53:29;5.00;;;3.05;;
60370;SDS011;48550;40.588;49.684;2024-01-15T00:55:55;6.18;;;2.95;;
60370;SDS011;48550;40.588;49.684;2024-01-15T00:58:20;6.25;;;2.65;;
60370;SDS011;48550;40.588;49.684;2024-01-15T01:00:46;4.65;;;2.78;;
60370;SDS011;48550;40.588;49.684;2024-01-15T01:03:12;6.03;;;2.92;;
60370;SDS011;48550;40.588;49.684;2024-01-15T01:05:38;3.17;;;2.42;;
60370;SDS011;48550;40.588;49.684;2024-01-15T01:08:03;5.32;;;2.28;;
60370;SDS011;48550;40.588;49.684;2024-01-15T01:10:29;3.03;;;2.08;;
60370;SDS011;48550;40.588;49.684;2024-01-15T01:12:55;5.97;;;2.63;;
60370;SDS011;48550;40.588;49.684;2024-01-15T01:15:21;4.43;;;2.38;;
60370;SDS011;48550;40.588;49.684;2024-01-15T01:17:47;6.35;;;2.58;;
60370;SDS011;48550;40.588;49.684;2024-01-15T01:20:12;5.03;;;2.25;;
60370;SDS011;48550;40.588;49.684;2024-01-15T01:22:40;4.43;;;2.70;;
60370;SDS011;48550;40.588;49.684;2024-01-15T01:25:06;3.45;;;2.05;;
60370;SDS011;48550;40.588;49.684;2024-01-15T01:27:32;2.40;;;1.75;;
60370;SDS011;48550;40.588;49.684;2024-01-15T01:29:58;3.83;;;2.03;;
60370;SDS011;48550;40.588;49.684;2024-01-15T01:32:24;4.25;;;2.20;;
60370;SDS011;48550;40.588;49.684;2024-01-15T01:34:50;3.72;;;2.25;;
60370;SDS011;48550;40.588;49.684;2024-01-15T01:37:16;3.45;;;2.10;;
60370;SDS011;48550;40.588;49.684;2024-01-15T01:39:41;3.83;;;2.17;;
60370;SDS011;48550;40.588;49.684;2024-01-15T01:42:08;3.97;;;2.00;;
60370;SDS011;48550;40.588;49.684;2024-01-15T01:44:34;4.50;;;1.60;;
60370;SDS011;48550;40.588;49.684;2024-01-15T01:47:00;4.25;;;1.92;;
60370;SDS011;48550;40.588;49.684;2024-01-15T01:49:26;3.30;;;1.92;;
60370;SDS011;48550;40.588;49.684;2024-01-15T01:51:54;14.57;;;1.90;;
60370;SDS011;48550;40.588;49.684;2024-01-15T01:54:22;3.80;;;1.83;;
60370;SDS011;48550;40.588;49.684;2024-01-15T01:56:49;3.50;;;2.00;;
60370;SDS011;48550;40.588;49.684;2024-01-15T01:59:16;3.65;;;1.80;;
60370;SDS011;48550;40.588;49.684;2024-01-15T02:01:42;3.33;;;1.85;;
60370;SDS011;48550;40.588;49.684;2024-01-15T02:04:10;6.35;;;2.35;;
60370;SDS011;48550;40.588;49.684;2024-01-15T02:06:36;4.07;;;2.03;;
60370;SDS011;48550;40.588;49.684;2024-01-15T02:09:03;2.17;;;1.70;;
60370;SDS011;48550;40.588;49.684;2024-01-15T02:11:30;3.35;;;2.30;;
60370;SDS011;48550;40.588;49.684;2024-01-15T02:13:57;1.77;;;1.23;;
60370;SDS011;48550;40.588;49.684;2024-01-15T02:16:22;3.63;;;2.30;;
60370;SDS011;48550;40.588;49.684;2024-01-15T02:18:48;2.45;;;1.60;;
60370;SDS011;48550;40.588;49.684;2024-01-15T02:21:14;2.33;;;1.60;;
60370;SDS011;48550;40.588;49.684;2024-01-15T02:23:40;3.70;;;2.25;;
60370;SDS011;48550;40.588;49.684;2024-01-15T02:26:05;4.55;;;2.65;;
60370;SDS011;48550;40.588;49.684;2024-01-15T02:28:33;2.30;;;1.60;;
60370;SDS011;48550;40.588;49.684;2024-01-15T02:30:59;4.80;;;1.77;;
60370;SDS011;48550;40.588;49.684;2024-01-15T02:33:25;3.30;;;1.90;;
60370;SDS011;48550;40.588;49.684;2024-01-15T02:35:50;4.43;;;2.05;;
60370;SDS011;48550;40.588;49.684;2024-01-15T02:38:16;1.95;;;1.60;;
60370;SDS011;48550;40.588;49.684;2024-01-15T02:40:43;5.38;;;2.63;;
60370;SDS011;48550;40.588;49.684;2024-01-15T02:43:09;3.17;;;2.08;;
60370;SDS011;48550;40.588;49.684;2024-01-15T02:45:35;4.47;;;2.80;;
60370;SDS011;48550;40.588;49.684;2024-01-15T02:48:00;5.90;;;2.50;;
60370;SDS011;48550;40.588;49.684;2024-01-15T02:50:26;6.18;;;2.13;;
60370;SDS011;48550;40.588;49.684;2024-01-15T02:52:52;2.55;;;1.75;;
60370;SDS011;48550;40.588;49.684;2024-01-15T02:55:18;2.13;;;1.58;;
60370;SDS011;48550;40.588;49.684;2024-01-15T02:57:44;3.30;;;1.75;;
60370;SDS011;48550;40.588;49.684;2024-01-15T03:00:09;3.30;;;1.80;;
60370;SDS011;48550;40.588;49.684;2024-01-15T03:02:37;3.30;;;1.92;;
60370;SDS011;48550;40.588;49.684;2024-01-15T03:05:08;4.05;;;1.90;;
60370;SDS011;48550;40.588;49.684;2024-01-15T03:07:37;3.47;;;1.92;;
60370;SDS011;48550;40.588;49.684;2024-01-15T03:10:04;3.47;;;1.77;;
60370;SDS011;48550;40.588;49.684;2024-01-15T03:12:31;3.95;;;1.98;;
60370;SDS011;48550;40.588;49.684;2024-01-15T03:14:56;3.25;;;2.08;;
60370;SDS011;48550;40.588;49.684;2024-01-15T03:17:22;2.70;;;1.65;;
60370;SDS011;48550;40.588;49.684;2024-01-15T03:19:48;1.60;;;1.50;;
60370;SDS011;48550;40.588;49.684;2024-01-15T03:22:15;2.65;;;1.50;;
60370;SDS011;48550;40.588;49.684;2024-01-15T03:24:41;3.33;;;1.83;;
60370;SDS011;48550;40.588;49.684;2024-01-15T03:27:07;1.60;;;1.40;;
60370;SDS011;48550;40.588;49.684;2024-01-15T03:29:32;2.03;;;1.75;;
60370;SDS011;48550;40.588;49.684;2024-01-15T03:31:58;2.72;;;1.50;;
60370;SDS011;48550;40.588;49.684;2024-01-15T03:34:24;3.20;;;1.42;;
60370;SDS011;48550;40.588;49.684;2024-01-15T03:36:50;2.85;;;1.88;;
60370;SDS011;48550;40.588;49.684;2024-01-15T03:39:15;1.77;;;1.35;;
60370;SDS011;48550;40.588;49.684;2024-01-15T03:41:41;4.55;;;1.80;;
60370;SDS011;48550;40.588;49.684;2024-01-15T03:44:07;4.38;;;2.13;;
60370;SDS011;48550;40.588;49.684;2024-01-15T03:46:32;4.70;;;2.05;;
60370;SDS011;48550;40.588;49.684;2024-01-15T03:48:58;2.60;;;1.70;;
60370;SDS011;48550;40.588;49.684;2024-01-15T03:51:24;2.03;;;1.40;;
60370;SDS011;48550;40.588;49.684;2024-01-15T03:53:50;3.83;;;2.05;;
60370;SDS011;48550;40.588;49.684;2024-01-15T03:56:15;2.45;;;1.67;;
60370;SDS011;48550;40.588;49.684;2024-01-15T03:58:41;2.65;;;1.73;;
60370;SDS011;48550;40.588;49.684;2024-01-15T04:01:07;2.97;;;1.40;;
60370;SDS011;48550;40.588;49.684;2024-01-15T04:03:34;3.00;;;1.80;;
60370;SDS011;48550;40.588;49.684;2024-01-15T04:06:00;4.38;;;2.50;;
60370;SDS011;48550;40.588;49.684;2024-01-15T04:08:26;3.40;;;2.00;;
60370;SDS011;48550;40.588;49.684;2024-01-15T04:10:52;2.88;;;1.80;;
60370;SDS011;48550;40.588;49.684;2024-01-15T04:13:18;2.95;;;1.55;;
60370;SDS011;48550;40.588;49.684;2024-01-15T04:15:43;3.25;;;1.83;;
60370;SDS011;48550;40.588;49.684;2024-01-15T04:18:09;3.70;;;1.90;;
60370;SDS011;48550;40.588;49.684;2024-01-15T04:20:35;4.13;;;2.28;;
60370;SDS011;48550;40.588;49.684;2024-01-15T04:23:00;2.38;;;1.50;;
60370;SDS011;48550;40.588;49.684;2024-01-15T04:25:26;2.20;;;1.50;;
60370;SDS011;48550;40.588;49.684;2024-01-15T04:27:52;2.33;;;1.65;;
60370;SDS011;48550;40.588;49.684;2024-01-15T04:30:17;2.65;;;1.77;;
60370;SDS011;48550;40.588;49.684;2024-01-15T04:32:43;6.05;;;1.83;;
60370;SDS011;48550;40.588;49.684;2024-01-15T04:35:09;5.35;;;2.00;;
60370;SDS011;48550;40.588;49.684;2024-01-15T04:37:34;2.22;;;1.50;;
60370;SDS011;48550;40.588;49.684;2024-01-15T04:40:00;4.10;;;2.35;;
60370;SDS011;48550;40.588;49.684;2024-01-15T04:42:29;3.17;;;1.92;;
60370;SDS011;48550;40.588;49.684;2024-01-15T04:44:54;3.22;;;2.03;;
60370;SDS011;48550;40.588;49.684;2024-01-15T04:47:20;3.25;;;1.70;;
60370;SDS011;48550;40.588;49.684;2024-01-15T04:49:46;3.97;;;2.10;;
60370;SDS011;48550;40.588;49.684;2024-01-15T04:52:13;4.07;;;2.20;;
60370;SDS011;48550;40.588;49.684;2024-01-15T04:54:38;6.93;;;4.05;;
60370;SDS011;48550;40.588;49.684;2024-01-15T04:57:04;5.38;;;2.28;;
60370;SDS011;48550;40.588;49.684;2024-01-15T04:59:30;3.90;;;1.80;;
60370;SDS011;48550;40.588;49.684;2024-01-15T05:01:56;2.92;;;1.88;;
60370;SDS011;48550;40.588;49.684;2024-01-15T05:04:24;6.90;;;2.30;;
60370;SDS011;48550;40.588;49.684;2024-01-15T05:06:50;4.38;;;2.08;;
60370;SDS011;48550;40.588;49.684;2024-01-15T05:09:16;3.60;;;2.20;;
60370;SDS011;48550;40.588;49.684;2024-01-15T05:11:43;2.00;;;1.50;;
60370;SDS011;48550;40.588;49.684;2024-01-15T05:14:09;3.47;;;2.30;;
60370;SDS011;48550;40.588;49.684;2024-01-15T05:16:35;3.53;;;2.00;;
60370;SDS011;48550;40.588;49.684;2024-01-15T05:19:03;1.65;;;1.35;;
60370;SDS011;48550;40.588;49.684;2024-01-15T05:21:29;2.03;;;1.30;;
60370;SDS011;48550;40.588;49.684;2024-01-15T05:23:55;5.00;;;2.78;;
60370;SDS011;48550;40.588;49.684;2024-01-15T05:26:20;2.22;;;1.55;;
60370;SDS011;48550;40.588;49.684;2024-01-15T05:28:46;1.85;;;1.50;;
60370;SDS011;48550;40.588;49.684;2024-01-15T05:31:12;1.77;;;1.50;;
60370;SDS011;48550;40.588;49.684;2024-01-15T05:33:37;4.00;;;1.50;;
60370;SDS011;48550;40.588;49.684;2024-01-15T05:36:03;2.60;;;1.88;;
60370;SDS011;48550;40.588;49.684;2024-01-15T05:38:29;2.38;;;1.55;;
60370;SDS011;48550;40.588;49.684;2024-01-15T05:40:55;1.77;;;1.50;;
60370;SDS011;48550;40.588;49.684;2024-01-15T05:43:21;3.25;;;1.73;;
60370;SDS011;48550;40.588;49.684;2024-01-15T05:45:47;4.32;;;2.65;;
60370;SDS011;48550;40.588;49.684;2024-01-15T05:48:12;2.65;;;1.83;;
60370;SDS011;48550;40.588;49.684;2024-01-15T05:50:38;2.92;;;1.88;;
60370;SDS011;48550;40.588;49.684;2024-01-15T05:53:04;2.35;;;1.80;;
60370;SDS011;48550;40.588;49.684;2024-01-15T05:55:30;4.25;;;2.40;;
60370;SDS011;48550;40.588;49.684;2024-01-15T05:57:55;4.63;;;1.80;;
60370;SDS011;48550;40.588;49.684;2024-01-15T06:00:21;2.83;;;1.83;;
60370;SDS011;48550;40.588;49.684;2024-01-15T06:02:47;2.58;;;1.83;;
60370;SDS011;48550;40.588;49.684;2024-01-15T06:05:13;4.00;;;1.73;;
60370;SDS011;48550;40.588;49.684;2024-01-15T06:07:38;2.38;;;1.70;;
60370;SDS011;48550;40.588;49.684;2024-01-15T06:10:04;4.38;;;1.70;;
60370;SDS011;48550;40.588;49.684;2024-01-15T06:12:30;3.88;;;2.05;;
60370;SDS011;48550;40.588;49.684;2024-01-15T06:14:57;8.48;;;3.65;;
60370;SDS011;48550;40.588;49.684;2024-01-15T06:17:23;2.45;;;1.80;;
60370;SDS011;48550;40.588;49.684;2024-01-15T06:19:49;3.85;;;1.60;;
60370;SDS011;48550;40.588;49.684;2024-01-15T06:22:14;2.58;;;1.65;;
60370;SDS011;48550;40.588;49.684;2024-01-15T06:24:40;2.47;;;1.60;;
60370;SDS011;48550;40.588;49.684;2024-01-15T06:27:06;1.83;;;1.48;;
60370;SDS011;48550;40.588;49.684;2024-01-15T06:29:32;2.33;;;1.52;;
60370;SDS011;48550;40.588;49.684;2024-01-15T06:31:57;3.00;;;1.63;;
60370;SDS011;48550;40.588;49.684;2024-01-15T06:34:23;6.50;;;3.63;;
60370;SDS011;48550;40.588;49.684;2024-01-15T06:36:49;3.08;;;1.83;;
60370;SDS011;48550;40.588;49.684;2024-01-15T06:39:15;3.13;;;1.88;;
60370;SDS011;48550;40.588;49.684;2024-01-15T06:41:40;2.45;;;1.73;;
60370;SDS011;48550;40.588;49.684;2024-01-15T06:44:12;5.78;;;2.40;;
60370;SDS011;48550;40.588;49.684;2024-01-15T06:46:44;4.63;;;2.83;;
60370;SDS011;48550;40.588;49.684;2024-01-15T06:49:10;3.83;;;2.10;;
60370;SDS011;48550;40.588;49.684;2024-01-15T06:51:36;3.65;;;2.28;;
60370;SDS011;48550;40.588;49.684;2024-01-15T06:54:02;4.30;;;2.30;;
60370;SDS011;48550;40.588;49.684;2024-01-15T06:56:28;4.55;;;2.10;;
60370;SDS011;48550;40.588;49.684;2024-01-15T06:58:54;3.35;;;1.83;;
60370;SDS011;48550;40.588;49.684;2024-01-15T07:01:19;3.67;;;1.85;;
60370;SDS011;48550;40.588;49.684;2024-01-15T07:03:45;2.47;;;1.70;;
60370;SDS011;48550;40.588;49.684;2024-01-15T07:06:11;4.15;;;1.80;;
60370;SDS011;48550;40.588;49.684;2024-01-15T07:08:38;4.05;;;1.70;;
60370;SDS011;48550;40.588;49.684;2024-01-15T07:11:05;6.25;;;2.58;;
60370;SDS011;48550;40.588;49.684;2024-01-15T07:13:31;8.68;;;2.20;;
60370;SDS011;48550;40.588;49.684;2024-01-15T07:15:57;2.78;;;1.88;;
60370;SDS011;48550;40.588;49.684;2024-01-15T07:18:22;3.70;;;2.30;;
60370;SDS011;48550;40.588;49.684;2024-01-15T07:20:48;3.05;;;1.80;;
60370;SDS011;48550;40.588;49.684;2024-01-15T07:23:14;2.55;;;1.70;;
60370;SDS011;48550;40.588;49.684;2024-01-15T07:25:40;3.80;;;1.67;;
60370;SDS011;48550;40.588;49.684;2024-01-15T07:28:06;3.72;;;2.20;;
60370;SDS011;48550;40.588;49.684;2024-01-15T07:30:32;4.88;;;2.60;;
60370;SDS011;48550;40.588;49.684;2024-01-15T07:32:57;4.25;;;2.55;;
60370;SDS011;48550;40.588;49.684;2024-01-15T07:35:23;5.53;;;2.45;;
60370;SDS011;48550;40.588;49.684;2024-01-15T07:37:49;4.35;;;2.50;;
60370;SDS011;48550;40.588;49.684;2024-01-15T07:40:15;9.77;;;3.63;;
60370;SDS011;48550;40.588;49.684;2024-01-15T07:42:41;4.75;;;2.63;;
60370;SDS011;48550;40.588;49.684;2024-01-15T07:45:08;4.97;;;2.50;;
60370;SDS011;48550;40.588;49.684;2024-01-15T07:47:34;4.20;;;2.72;;
60370;SDS011;48550;40.588;49.684;2024-01-15T07:50:00;4.97;;;2.70;;
60370;SDS011;48550;40.588;49.684;2024-01-15T07:52:26;6.28;;;3.03;;
60370;SDS011;48550;40.588;49.684;2024-01-15T07:54:52;4.93;;;2.35;;
60370;SDS011;48550;40.588;49.684;2024-01-15T07:57:17;3.72;;;2.42;;
60370;SDS011;48550;40.588;49.684;2024-01-15T07:59:43;4.22;;;2.28;;
60370;SDS011;48550;40.588;49.684;2024-01-15T08:02:09;6.30;;;3.38;;
60370;SDS011;48550;40.588;49.684;2024-01-15T08:04:36;6.47;;;3.17;;
60370;SDS011;48550;40.588;49.684;2024-01-15T08:07:03;4.82;;;2.55;;
60370;SDS011;48550;40.588;49.684;2024-01-15T08:09:30;5.38;;;3.00;;
60370;SDS011;48550;40.588;49.684;2024-01-15T08:11:56;4.75;;;2.78;;
60370;SDS011;48550;40.588;49.684;2024-01-15T08:14:22;4.57;;;2.58;;
60370;SDS011;48550;40.588;49.684;2024-01-15T08:16:48;5.10;;;2.88;;
60370;SDS011;48550;40.588;49.684;2024-01-15T08:19:13;4.97;;;3.00;;
60370;SDS011;48550;40.588;49.684;2024-01-15T08:21:39;6.05;;;3.22;;
60370;SDS011;48550;40.588;49.684;2024-01-15T08:24:05;6.15;;;3.28;;
60370;SDS011;48550;40.588;49.684;2024-01-15T08:26:31;6.45;;;3.47;;
60370;SDS011;48550;40.588;49.684;2024-01-15T08:29:00;7.22;;;4.03;;
60370;SDS011;48550;40.588;49.684;2024-01-15T08:31:26;6.85;;;2.65;;
60370;SDS011;48550;40.588;49.684;2024-01-15T08:33:52;4.57;;;2.70;;
60370;SDS011;48550;40.588;49.684;2024-01-15T08:36:18;7.93;;;3.95;;
60370;SDS011;48550;40.588;49.684;2024-01-15T08:38:44;5.18;;;3.30;;
60370;SDS011;48550;40.588;49.684;2024-01-15T08:41:10;5.25;;;2.92;;
60370;SDS011;48550;40.588;49.684;2024-01-15T08:43:36;8.15;;;3.20;;
60370;SDS011;48550;40.588;49.684;2024-01-15T08:46:02;6.13;;;3.10;;
60370;SDS011;48550;40.588;49.684;2024-01-15T08:48:28;6.88;;;3.50;;
60370;SDS011;48550;40.588;49.684;2024-01-15T08:50:54;6.10;;;3.22;;
60370;SDS011;48550;40.588;49.684;2024-01-15T08:53:20;5.88;;;3.35;;
60370;SDS011;48550;40.588;49.684;2024-01-15T08:55:45;4.88;;;2.70;;
60370;SDS011;48550;40.588;49.684;2024-01-15T08:58:11;9.77;;;4.20;;
60370;SDS011;48550;40.588;49.684;2024-01-15T09:00:37;6.30;;;3.92;;
60370;SDS011;48550;40.588;49.684;2024-01-15T09:03:03;6.97;;;3.85;;
60370;SDS011;48550;40.588;49.684;2024-01-15T09:05:29;7.35;;;4.18;;
60370;SDS011;48550;40.588;49.684;2024-01-15T09:07:54;7.45;;;3.58;;
60370;SDS011;48550;40.588;49.684;2024-01-15T09:10:21;5.80;;;2.63;;
60370;SDS011;48550;40.588;49.684;2024-01-15T09:12:47;5.88;;;3.20;;
60370;SDS011;48550;40.588;49.684;2024-01-15T09:15:14;4.35;;;2.60;;
60370;SDS011;48550;40.588;49.684;2024-01-15T09:17:40;8.82;;;3.92;;
60370;SDS011;48550;40.588;49.684;2024-01-15T09:20:06;5.65;;;2.97;;
60370;SDS011;48550;40.588;49.684;2024-01-15T09:22:32;7.90;;;3.05;;
60370;SDS011;48550;40.588;49.684;2024-01-15T09:24:58;5.57;;;2.70;;
60370;SDS011;48550;40.588;49.684;2024-01-15T09:27:24;5.28;;;2.83;;
60370;SDS011;48550;40.588;49.684;2024-01-15T09:29:51;7.50;;;2.80;;
60370;SDS011;48550;40.588;49.684;2024-01-15T09:32:20;5.15;;;3.08;;
60370;SDS011;48550;40.588;49.684;2024-01-15T09:34:46;6.50;;;3.47;;
60370;SDS011;48550;40.588;49.684;2024-01-15T09:37:13;6.72;;;3.88;;
60370;SDS011;48550;40.588;49.684;2024-01-15T09:39:39;6.78;;;3.80;;
60370;SDS011;48550;40.588;49.684;2024-01-15T09:42:05;6.90;;;3.90;;
60370;SDS011;48550;40.588;49.684;2024-01-15T09:44:31;6.80;;;3.53;;
60370;SDS011;48550;40.588;49.684;2024-01-15T09:46:57;7.82;;;3.97;;
60370;SDS011;48550;40.588;49.684;2024-01-15T09:49:23;9.07;;;4.47;;
60370;SDS011;48550;40.588;49.684;2024-01-15T09:51:49;7.43;;;4.13;;
60370;SDS011;48550;40.588;49.684;2024-01-15T09:54:15;6.35;;;3.28;;
60370;SDS011;48550;40.588;49.684;2024-01-15T09:56:45;6.35;;;3.67;;
60370;SDS011;48550;40.588;49.684;2024-01-15T09:59:14;8.88;;;4.80;;
60370;SDS011;48550;40.588;49.684;2024-01-15T10:01:42;10.23;;;5.03;;
60370;SDS011;48550;40.588;49.684;2024-01-15T10:04:13;10.25;;;4.95;;
60370;SDS011;48550;40.588;49.684;2024-01-15T10:06:41;7.35;;;4.32;;
60370;SDS011;48550;40.588;49.684;2024-01-15T10:09:10;6.90;;;3.80;;
60370;SDS011;48550;40.588;49.684;2024-01-15T10:11:51;6.10;;;3.75;;
60370;SDS011;48550;40.588;49.684;2024-01-15T10:14:18;9.48;;;5.68;;
60370;SDS011;48550;40.588;49.684;2024-01-15T10:16:44;12.13;;;5.55;;
60370;SDS011;48550;40.588;49.684;2024-01-15T10:19:10;13.63;;;7.78;;
60370;SDS011;48550;40.588;49.684;2024-01-15T10:21:36;8.05;;;4.97;;
60370;SDS011;48550;40.588;49.684;2024-01-15T10:24:03;9.43;;;5.47;;
60370;SDS011;48550;40.588;49.684;2024-01-15T10:26:30;9.93;;;5.57;;
60370;SDS011;48550;40.588;49.684;2024-01-15T10:28:57;7.47;;;4.07;;
60370;SDS011;48550;40.588;49.684;2024-01-15T10:31:24;6.57;;;3.90;;
60370;SDS011;48550;40.588;49.684;2024-01-15T10:33:50;7.57;;;3.10;;
60370;SDS011;48550;40.588;49.684;2024-01-15T10:36:16;7.18;;;2.78;;
60370;SDS011;48550;40.588;49.684;2024-01-15T10:38:43;7.80;;;3.25;;
60370;SDS011;48550;40.588;49.684;2024-01-15T10:41:09;4.13;;;2.50;;
60370;SDS011;48550;40.588;49.684;2024-01-15T10:43:35;5.57;;;2.80;;
60370;SDS011;48550;40.588;49.684;2024-01-15T10:46:01;5.32;;;3.20;;
60370;SDS011;48550;40.588;49.684;2024-01-15T10:48:28;4.70;;;2.72;;
60370;SDS011;48550;40.588;49.684;2024-01-15T10:50:56;5.30;;;2.83;;
60370;SDS011;48550;40.588;49.684;2024-01-15T10:53:23;5.03;;;2.75;;
60370;SDS011;48550;40.588;49.684;2024-01-15T10:55:53;4.60;;;2.28;;
60370;SDS011;48550;40.588;49.684;2024-01-15T10:58:18;6.05;;;2.58;;
60370;SDS011;48550;40.588;49.684;2024-01-15T11:00:45;4.68;;;2.72;;
60370;SDS011;48550;40.588;49.684;2024-01-15T11:03:12;4.85;;;2.22;;
60370;SDS011;48550;40.588;49.684;2024-01-15T11:05:42;7.38;;;2.60;;
60370;SDS011;48550;40.588;49.684;2024-01-15T11:08:08;4.85;;;2.00;;
60370;SDS011;48550;40.588;49.684;2024-01-15T11:10:37;5.97;;;2.35;;
60370;SDS011;48550;40.588;49.684;2024-01-15T11:13:05;3.90;;;1.73;;
60370;SDS011;48550;40.588;49.684;2024-01-15T11:15:33;4.93;;;2.25;;
60370;SDS011;48550;40.588;49.684;2024-01-15T11:18:30;3.25;;;2.08;;
60370;SDS011;48550;40.588;49.684;2024-01-15T11:23:47;6.32;;;2.65;;
60370;SDS011;48550;40.588;49.684;2024-01-15T11:26:46;4.75;;;2.75;;
60370;SDS011;48550;40.588;49.684;2024-01-15T11:29:10;5.93;;;2.53;;
60370;SDS011;48550;40.588;49.684;2024-01-15T11:34:20;9.68;;;3.20;;
60370;SDS011;48550;40.588;49.684;2024-01-15T11:41:59;6.25;;;2.78;;
60370;SDS011;48550;40.588;49.684;2024-01-15T11:44:27;5.68;;;3.30;;
60370;SDS011;48550;40.588;49.684;2024-01-15T11:52:36;4.13;;;2.28;;
60370;SDS011;48550;40.588;49.684;2024-01-15T11:57:52;4.72;;;2.40;;
60370;SDS011;48550;40.588;49.684;2024-01-15T12:00:22;3.72;;;2.25;;
60370;SDS011;48550;40.588;49.684;2024-01-15T12:02:48;5.22;;;2.42;;
60370;SDS011;48550;40.588;49.684;2024-01-15T12:05:17;4.90;;;2.60;;
60370;SDS011;48550;40.588;49.684;2024-01-15T12:07:44;9.07;;;2.90;;
60370;SDS011;48550;40.588;49.684;2024-01-15T12:10:12;7.88;;;2.63;;
60370;SDS011;48550;40.588;49.684;2024-01-15T12:15:30;11.13;;;3.42;;
60370;SDS011;48550;40.588;49.684;2024-01-15T12:18:00;5.68;;;3.38;;
60370;SDS011;48550;40.588;49.684;2024-01-15T12:20:30;6.22;;;3.25;;
60370;SDS011;48550;40.588;49.684;2024-01-15T12:22:56;11.50;;;5.82;;
60370;SDS011;48550;40.588;49.684;2024-01-15T12:25:23;11.25;;;4.50;;
60370;SDS011;48550;40.588;49.684;2024-01-15T12:27:50;12.30;;;4.35;;
60370;SDS011;48550;40.588;49.684;2024-01-15T12:30:17;8.00;;;4.30;;
60370;SDS011;48550;40.588;49.684;2024-01-15T12:32:43;7.18;;;4.68;;
60370;SDS011;48550;40.588;49.684;2024-01-15T12:35:10;7.97;;;5.20;;
60370;SDS011;48550;40.588;49.684;2024-01-15T12:37:37;8.90;;;4.05;;
60370;SDS011;48550;40.588;49.684;2024-01-15T12:40:04;6.38;;;3.70;;
60370;SDS011;48550;40.588;49.684;2024-01-15T12:42:33;6.65;;;4.00;;
60370;SDS011;48550;40.588;49.684;2024-01-15T12:44:59;9.85;;;4.65;;
60370;SDS011;48550;40.588;49.684;2024-01-15T12:47:26;8.70;;;5.15;;
60370;SDS011;48550;40.588;49.684;2024-01-15T12:49:52;10.93;;;4.38;;
60370;SDS011;48550;40.588;49.684;2024-01-15T12:52:21;7.72;;;4.03;;
60370;SDS011;48550;40.588;49.684;2024-01-15T12:54:47;10.05;;;4.40;;
60370;SDS011;48550;40.588;49.684;2024-01-15T12:57:16;8.07;;;4.10;;
60370;SDS011;48550;40.588;49.684;2024-01-15T12:59:43;12.93;;;6.75;;
60370;SDS011;48550;40.588;49.684;2024-01-15T13:02:10;9.40;;;5.47;;
60370;SDS011;48550;40.588;49.684;2024-01-15T13:04:37;8.57;;;5.03;;
60370;SDS011;48550;40.588;49.684;2024-01-15T13:07:02;11.82;;;5.32;;
60370;SDS011;48550;40.588;49.684;2024-01-15T13:09:28;14.93;;;5.55;;
60370;SDS011;48550;40.588;49.684;2024-01-15T13:11:55;24.45;;;11.38;;
60370;SDS011;48550;40.588;49.684;2024-01-15T13:14:21;13.80;;;7.65;;
60370;SDS011;48550;40.588;49.684;2024-01-15T13:16:46;13.18;;;5.80;;
60370;SDS011;48550;40.588;49.684;2024-01-15T13:19:12;14.18;;;6.38;;
60370;SDS011;48550;40.588;49.684;2024-01-15T13:21:41;11.00;;;5.93;;
60370;SDS011;48550;40.588;49.684;2024-01-15T13:24:07;9.27;;;5.75;;
60370;SDS011;48550;40.588;49.684;2024-01-15T13:26:33;10.20;;;5.15;;
60370;SDS011;48550;40.588;49.684;2024-01-15T13:29:00;12.23;;;6.25;;
60370;SDS011;48550;40.588;49.684;2024-01-15T13:31:27;19.27;;;9.43;;
60370;SDS011;48550;40.588;49.684;2024-01-15T13:33:53;19.38;;;9.15;;
60370;SDS011;48550;40.588;49.684;2024-01-15T13:36:20;12.27;;;6.20;;
60370;SDS011;48550;40.588;49.684;2024-01-15T13:38:46;10.93;;;5.35;;
60370;SDS011;48550;40.588;49.684;2024-01-15T13:41:12;15.18;;;6.43;;
60370;SDS011;48550;40.588;49.684;2024-01-15T13:43:38;12.00;;;6.50;;
60370;SDS011;48550;40.588;49.684;2024-01-15T13:46:03;13.40;;;8.32;;
60370;SDS011;48550;40.588;49.684;2024-01-15T13:48:30;19.05;;;9.57;;
60370;SDS011;48550;40.588;49.684;2024-01-15T13:50:57;16.40;;;9.40;;
60370;SDS011;48550;40.588;49.684;2024-01-15T13:53:23;18.02;;;10.13;;
60370;SDS011;48550;40.588;49.684;2024-01-15T13:55:48;20.35;;;11.02;;
60370;SDS011;48550;40.588;49.684;2024-01-15T13:58:14;21.17;;;11.15;;
60370;SDS011;48550;40.588;49.684;2024-01-15T14:00:41;14.52;;;9.32;;
60370;SDS011;48550;40.588;49.684;2024-01-15T14:03:07;19.50;;;8.68;;
60370;SDS011;48550;40.588;49.684;2024-01-15T14:05:33;14.68;;;8.70;;
60370;SDS011;48550;40.588;49.684;2024-01-15T14:07:59;17.75;;;9.95;;
60370;SDS011;48550;40.588;49.684;2024-01-15T14:10:25;17.05;;;9.70;;
60370;SDS011;48550;40.588;49.684;2024-01-15T14:12:51;24.42;;;10.30;;
60370;SDS011;48550;40.588;49.684;2024-01-15T14:15:16;19.75;;;10.32;;
60370;SDS011;48550;40.588;49.684;2024-01-15T14:17:44;21.92;;;11.50;;
60370;SDS011;48550;40.588;49.684;2024-01-15T14:20:10;31.80;;;13.48;;
60370;SDS011;48550;40.588;49.684;2024-01-15T14:22:35;30.38;;;14.13;;
60370;SDS011;48550;40.588;49.684;2024-01-15T14:25:01;34.65;;;14.15;;
60370;SDS011;48550;40.588;49.684;2024-01-15T14:27:27;26.85;;;15.13;;
60370;SDS011;48550;40.588;49.684;2024-01-15T14:29:52;33.55;;;15.32;;
60370;SDS011;48550;40.588;49.684;2024-01-15T14:32:18;31.33;;;16.25;;
60370;SDS011;48550;40.588;49.684;2024-01-15T14:34:44;41.33;;;18.17;;
60370;SDS011;48550;40.588;49.684;2024-01-15T14:37:09;35.97;;;17.45;;
60370;SDS011;48550;40.588;49.684;2024-01-15T14:39:36;40.95;;;18.15;;
60370;SDS011;48550;40.588;49.684;2024-01-15T14:42:01;46.85;;;21.63;;
60370;SDS011;48550;40.588;49.684;2024-01-15T14:44:27;48.92;;;24.35;;
60370;SDS011;48550;40.588;49.684;2024-01-15T14:46:57;55.53;;;25.50;;
60370;SDS011;48550;40.588;49.684;2024-01-15T14:49:24;49.90;;;22.85;;